Time;durP1;ratioP1;P1;durP2;ratioP2;P2;SDS_P1;SDS_P2;PMS_P1;PMS_P2;Temp;Humidity;BMP_temperature;BMP_pressure;BME280_temperature;BME280_humidity;BME280_pressure;Samples;Min_cycle;Max_cycle;Signal;HPM_P1;HPM_P2
2023/10/11 00:02:57;;;;;;;0.20;0.20;;;;;;;;;;5073628;28;20032;-58
2023/10/11 00:05:24;;;;;;;0.10;0.10;;;;;;;;;;5073302;28;20024;-58
2023/10/11 00:07:57;;;;;;;4.90;0.50;;;;;;;;;;5073065;28;20471;-61
2023/10/11 00:10:23;;;;;;;0.60;0.30;;;;;;;;;;5072354;28;20024;-60
2023/10/11 00:12:50;;;;;;;0.20;0.20;;;;;;;;;;5068373;28;20021;-61
2023/10/11 00:15:17;;;;;;;0.30;0.30;;;;;;;;;;5068069;28;20406;-60
2023/10/11 00:17:47;;;;;;;6.43;0.40;;;;;;;;;;5067898;28;20122;-60
2023/10/11 00:20:27;;;;;;;0.10;0.10;;;;;;;;;;5067831;28;20037;-60
2023/10/11 00:22:55;;;;;;;0.30;0.13;;;;;;;;;;5072988;28;20032;-60
2023/10/11 00:25:25;;;;;;;0.27;0.13;;;;;;;;;;5073369;28;20017;-60
2023/10/11 00:27:52;;;;;;;0.53;0.23;;;;;;;;;;5073312;28;20032;-60
2023/10/11 00:30:21;;;;;;;0.03;0.00;;;;;;;;;;5072973;28;20024;-60
2023/10/11 00:32:48;;;;;;;0.17;0.10;;;;;;;;;;5071918;28;20028;-58
2023/10/11 00:35:24;;;;;;;0.30;0.10;;;;;;;;;;5067718;28;20437;-60
2023/10/11 00:37:52;;;;;;;0.30;0.20;;;;;;;;;;5066864;28;20036;-58
2023/10/11 00:40:26;;;;;;;0.43;0.20;;;;;;;;;;5065791;28;20028;-58
2023/10/11 00:42:53;;;;;;;0.00;0.00;;;;;;;;;;5049244;28;20028;-60
2023/10/11 00:45:23;;;;;;;0.23;0.20;;;;;;;;;;5063807;28;20021;-61
2023/10/11 00:47:55;;;;;;;0.10;0.10;;;;;;;;;;5072648;28;20029;-58
2023/10/11 00:50:22;;;;;;;0.00;0.00;;;;;;;;;;5069768;28;20456;-58
2023/10/11 00:52:55;;;;;;;0.27;0.13;;;;;;;;;;5052384;28;20060;-58
2023/10/11 00:55:23;;;;;;;0.10;0.10;;;;;;;;;;5066988;28;20715;-58
2023/10/11 00:57:53;;;;;;;0.20;0.03;;;;;;;;;;5056623;28;20039;-59
2023/10/11 01:00:23;;;;;;;0.00;0.00;;;;;;;;;;5067685;28;20082;-59
2023/10/11 01:02:54;;;;;;;0.00;0.00;;;;;;;;;;5067756;28;20030;-58
2023/10/11 01:05:22;;;;;;;7.30;0.33;;;;;;;;;;5068179;28;20498;-58
2023/10/11 01:07:54;;;;;;;0.07;0.07;;;;;;;;;;5072720;28;20025;-58
2023/10/11 01:10:23;;;;;;;0.23;0.20;;;;;;;;;;5072366;28;20021;-60
2023/10/11 01:12:50;;;;;;;0.17;0.17;;;;;;;;;;5072122;28;20033;-60
2023/10/11 01:15:22;;;;;;;0.40;0.20;;;;;;;;;;5072170;28;20033;-60
2023/10/11 01:17:48;;;;;;;0.97;0.20;;;;;;;;;;5070882;28;20475;-60
2023/10/11 01:20:19;;;;;;;0.00;0.00;;;;;;;;;;5067903;28;20029;-58
2023/10/11 01:22:45;;;;;;;0.00;0.00;;;;;;;;;;5066757;28;20028;-58
2023/10/11 01:25:19;;;;;;;0.20;0.10;;;;;;;;;;5053488;28;20037;-58
2023/10/11 01:27:47;;;;;;;1.03;0.30;;;;;;;;;;5067856;28;20020;-58
2023/10/11 01:30:14;;;;;;;0.20;0.10;;;;;;;;;;5061892;28;20029;-58
2023/10/11 01:32:44;;;;;;;0.03;0.03;;;;;;;;;;5054832;28;20372;-58
2023/10/11 01:35:35;;;;;;;0.20;0.10;;;;;;;;;;5071824;28;20053;-58
2023/10/11 01:38:05;;;;;;;0.10;0.10;;;;;;;;;;5071985;28;20053;-59
2023/10/11 01:40:33;;;;;;;0.40;0.30;;;;;;;;;;5070277;28;20036;-58
2023/10/11 01:43:00;;;;;;;0.17;0.10;;;;;;;;;;5066926;28;20036;-58
2023/10/11 01:45:27;;;;;;;0.20;0.10;;;;;;;;;;5067030;28;20032;-58
2023/10/11 01:47:57;;;;;;;2.77;0.63;;;;;;;;;;5066509;28;20025;-59
2023/10/11 01:50:24;;;;;;;0.00;0.00;;;;;;;;;;5075977;28;20095;-58
2023/10/11 01:52:51;;;;;;;0.20;0.20;;;;;;;;;;5091418;28;20024;-58
2023/10/11 01:55:18;;;;;;;0.90;0.20;;;;;;;;;;5091721;28;20043;-59
2023/10/11 01:57:51;;;;;;;0.03;0.03;;;;;;;;;;5092263;28;20081;-58
2023/10/11 02:00:29;;;;;;;0.10;0.10;;;;;;;;;;5092184;28;20378;-58
2023/10/11 02:02:56;;;;;;;0.20;0.10;;;;;;;;;;5090509;28;20024;-59
2023/10/11 02:05:26;;;;;;;1.03;0.40;;;;;;;;;;5086687;28;20655;-58
2023/10/11 02:07:53;;;;;;;0.00;0.00;;;;;;;;;;5086742;28;20028;-58
2023/10/11 02:10:25;;;;;;;0.00;0.00;;;;;;;;;;5086590;28;20012;-58
2023/10/11 02:12:55;;;;;;;0.23;0.20;;;;;;;;;;5087757;28;20032;-58
2023/10/11 02:15:27;;;;;;;0.00;0.00;;;;;;;;;;5091923;28;20036;-58
2023/10/11 02:17:54;;;;;;;0.53;0.27;;;;;;;;;;5091825;28;20425;-59
2023/10/11 02:20:21;;;;;;;3.47;0.30;;;;;;;;;;5092065;28;20712;-58
2023/10/11 02:22:51;;;;;;;0.87;0.27;;;;;;;;;;5091719;28;20028;-58
2023/10/11 02:25:18;;;;;;;0.47;0.23;;;;;;;;;;5090307;28;20024;-58
2023/10/11 02:27:45;;;;;;;1.90;0.30;;;;;;;;;;5088149;28;20020;-58
2023/10/11 02:30:20;;;;;;;0.30;0.10;;;;;;;;;;5090689;28;20470;-58
2023/10/11 02:32:47;;;;;;;0.50;0.30;;;;;;;;;;5090614;28;20114;-58
2023/10/11 02:35:14;;;;;;;0.07;0.07;;;;;;;;;;5091278;28;20028;-59
2023/10/11 02:37:45;;;;;;;0.23;0.10;;;;;;;;;;5095862;28;20024;-58
2023/10/11 02:40:16;;;;;;;1.50;0.27;;;;;;;;;;5095052;28;20356;-58
2023/10/11 02:42:49;;;;;;;0.47;0.30;;;;;;;;;;5076335;28;20048;-58
2023/10/11 02:45:19;;;;;;;0.93;0.20;;;;;;;;;;5066510;28;21497;-58
2023/10/11 02:47:46;;;;;;;0.53;0.13;;;;;;;;;;5065603;28;20032;-58
2023/10/11 02:50:13;;;;;;;0.30;0.20;;;;;;;;;;5069906;28;20452;-59
2023/10/11 02:52:41;;;;;;;0.87;0.37;;;;;;;;;;5069720;28;20021;-58
2023/10/11 02:55:21;;;;;;;0.13;0.10;;;;;;;;;;5061888;28;20182;-58
2023/10/11 02:58:05;;;;;;;0.20;0.10;;;;;;;;;;5050985;28;20021;-58
2023/10/11 03:00:33;;;;;;;0.17;0.17;;;;;;;;;;5070529;28;20055;-58
2023/10/11 03:03:00;;;;;;;2.57;0.50;;;;;;;;;;5074927;28;20050;-58
2023/10/11 03:05:27;;;;;;;0.60;0.30;;;;;;;;;;5074844;28;20029;-58
2023/10/11 03:10:53;;;;;;;1.07;0.40;;;;;;;;;;5092326;28;20039;-58
2023/10/11 03:13:29;;;;;;;1.00;0.37;;;;;;;;;;5076389;28;20025;-58
2023/10/11 03:16:00;;;;;;;0.60;0.30;;;;;;;;;;5068250;28;20039;-58
2023/10/11 03:18:32;;;;;;;0.43;0.30;;;;;;;;;;5069318;28;20491;-58
2023/10/11 03:21:15;;;;;;;0.07;0.07;;;;;;;;;;5071886;28;20032;-58
2023/10/11 03:23:47;;;;;;;0.43;0.20;;;;;;;;;;5074413;28;20467;-58
2023/10/11 03:26:19;;;;;;;0.30;0.20;;;;;;;;;;5074470;28;20029;-58
2023/10/11 03:29:17;;;;;;;0.17;0.17;;;;;;;;;;5073260;28;20082;-58
2023/10/11 03:31:45;;;;;;;0.97;0.47;;;;;;;;;;5073851;28;20029;-58
2023/10/11 03:34:11;;;;;;;0.20;0.10;;;;;;;;;;5069130;28;20033;-58
2023/10/11 03:36:52;;;;;;;0.20;0.20;;;;;;;;;;5069122;28;20154;-58
2023/10/11 03:39:39;;;;;;;0.43;0.37;;;;;;;;;;5068094;28;20116;-58
2023/10/11 03:44:46;;;;;;;0.77;0.50;;;;;;;;;;5074201;28;20036;-58
2023/10/11 03:47:24;;;;;;;0.20;0.20;;;;;;;;;;5073847;28;20025;-58
2023/10/11 03:49:51;;;;;;;0.47;0.40;;;;;;;;;;5055926;28;20676;-58
2023/10/11 03:52:30;;;;;;;0.83;0.50;;;;;;;;;;5053971;28;20388;-58
2023/10/11 03:55:09;;;;;;;0.60;0.43;;;;;;;;;;5065264;28;20367;-58
2023/10/11 03:57:41;;;;;;;0.63;0.50;;;;;;;;;;5068085;28;20021;-58
2023/10/11 04:03:05;;;;;;;0.80;0.53;;;;;;;;;;5068706;28;20032;-58
2023/10/11 04:05:35;;;;;;;0.50;0.40;;;;;;;;;;5070322;28;20032;-59
2023/10/11 04:08:07;;;;;;;0.20;0.10;;;;;;;;;;5053637;28;20075;-58
2023/10/11 04:10:43;;;;;;;0.67;0.27;;;;;;;;;;5053530;28;20027;-58
2023/10/11 04:13:14;;;;;;;0.70;0.40;;;;;;;;;;5053455;28;20025;-58
2023/10/11 04:15:49;;;;;;;2.00;0.47;;;;;;;;;;5053331;28;20047;-58
2023/10/11 04:23:39;;;;;;;0.53;0.33;;;;;;;;;;5047896;28;20032;-58
2023/10/11 04:26:22;;;;;;;0.63;0.30;;;;;;;;;;5048126;28;20079;-58
2023/10/11 04:28:51;;;;;;;0.50;0.30;;;;;;;;;;5052125;28;20111;-58
2023/10/11 04:31:30;;;;;;;12.33;0.53;;;;;;;;;;5053054;28;20463;-58
2023/10/11 04:33:59;;;;;;;0.00;0.00;;;;;;;;;;5053215;28;20464;-58
2023/10/11 04:36:28;;;;;;;0.43;0.23;;;;;;;;;;5053101;28;20357;-58
2023/10/11 04:39:14;;;;;;;0.10;0.10;;;;;;;;;;5052506;28;20028;-58
2023/10/11 04:41:49;;;;;;;0.00;0.00;;;;;;;;;;5047707;28;20155;-58
2023/10/11 04:44:17;;;;;;;0.10;0.10;;;;;;;;;;5078921;28;20024;-59
2023/10/11 04:46:57;;;;;;;1.13;0.43;;;;;;;;;;5074651;28;20025;-58
2023/10/11 04:49:25;;;;;;;0.10;0.10;;;;;;;;;;5051560;28;20552;-58
2023/10/11 04:51:56;;;;;;;0.53;0.37;;;;;;;;;;5058297;28;20033;-58
2023/10/11 04:54:35;;;;;;;1.67;0.60;;;;;;;;;;5072565;28;20040;-58
2023/10/11 04:57:07;;;;;;;0.60;0.40;;;;;;;;;;5072775;28;20027;-58
2023/10/11 05:02:16;;;;;;;0.00;0.00;;;;;;;;;;5071611;28;20037;-58
2023/10/11 05:04:44;;;;;;;0.10;0.10;;;;;;;;;;5067443;28;20103;-59
2023/10/11 05:07:12;;;;;;;0.97;0.60;;;;;;;;;;5067386;28;21087;-58
2023/10/11 05:09:39;;;;;;;0.30;0.20;;;;;;;;;;5067474;28;20451;-59
2023/10/11 05:12:13;;;;;;;26.13;0.90;;;;;;;;;;5068009;28;20021;-58
2023/10/11 05:19:47;;;;;;;4.73;0.57;;;;;;;;;;5077197;28;20028;-58
2023/10/11 05:22:29;;;;;;;0.70;0.40;;;;;;;;;;5072314;28;20028;-57
2023/10/11 05:52:17;;;;;;;3.23;0.30;;;;;;;;;;5066777;28;20126;-58
2023/10/11 05:54:46;;;;;;;0.67;0.40;;;;;;;;;;5066337;28;20052;-58
2023/10/11 05:57:16;;;;;;;0.30;0.20;;;;;;;;;;5068202;28;20020;-57
2023/10/11 05:59:47;;;;;;;1.73;0.33;;;;;;;;;;5072064;28;20047;-58
2023/10/11 06:02:14;;;;;;;0.97;0.30;;;;;;;;;;5072718;28;20479;-57
2023/10/11 06:04:41;;;;;;;0.13;0.13;;;;;;;;;;5076256;28;20100;-57
2023/10/11 06:07:08;;;;;;;0.10;0.10;;;;;;;;;;5075789;28;20063;-58
2023/10/11 06:09:43;;;;;;;0.53;0.30;;;;;;;;;;5074549;28;20380;-57
2023/10/11 06:12:29;;;;;;;0.33;0.13;;;;;;;;;;5070844;28;20020;-57
2023/10/11 06:14:56;;;;;;;0.60;0.37;;;;;;;;;;5070707;28;20047;-58
2023/10/11 06:17:33;;;;;;;1.43;0.40;;;;;;;;;;5070587;28;20028;-58
2023/10/11 06:20:23;;;;;;;0.97;0.43;;;;;;;;;;5072301;28;20028;-58
2023/10/11 06:22:49;;;;;;;0.50;0.33;;;;;;;;;;5075530;28;20040;-57
2023/10/11 06:25:22;;;;;;;0.90;0.40;;;;;;;;;;5068403;28;20075;-58
2023/10/11 06:30:25;;;;;;;0.90;0.40;;;;;;;;;;5054714;28;20102;-57
2023/10/11 06:32:52;;;;;;;0.33;0.30;;;;;;;;;;5051982;28;20024;-57
2023/10/11 06:35:25;;;;;;;0.20;0.13;;;;;;;;;;5050026;28;20037;-57
2023/10/11 06:37:54;;;;;;;10.30;0.80;;;;;;;;;;5049603;28;20025;-57
2023/10/11 06:40:38;;;;;;;0.53;0.30;;;;;;;;;;5049939;28;20058;-58
2023/10/11 06:43:06;;;;;;;1.13;0.33;;;;;;;;;;5052700;28;20037;-58
2023/10/11 06:45:33;;;;;;;0.37;0.27;;;;;;;;;;5055196;28;20464;-57
2023/10/11 06:48:09;;;;;;;2.43;0.57;;;;;;;;;;5055210;28;20029;-57
2023/10/11 06:50:39;;;;;;;0.17;0.10;;;;;;;;;;5054995;28;20116;-57
2023/10/11 06:53:09;;;;;;;1.53;0.70;;;;;;;;;;5055035;28;20371;-57
2023/10/11 06:55:39;;;;;;;0.83;0.63;;;;;;;;;;5050448;28;20029;-58
2023/10/11 06:58:15;;;;;;;0.97;0.40;;;;;;;;;;5049524;28;20032;-58
2023/10/11 07:00:45;;;;;;;0.60;0.40;;;;;;;;;;5049711;28;20789;-57
2023/10/11 07:05:56;;;;;;;0.33;0.30;;;;;;;;;;5053814;28;20037;-57
2023/10/11 07:08:32;;;;;;;0.93;0.57;;;;;;;;;;5054402;28;20451;-57
2023/10/11 07:16:27;;;;;;;0.10;0.10;;;;;;;;;;5053817;28;20400;-57
2023/10/11 07:18:58;;;;;;;1.03;0.50;;;;;;;;;;5049310;28;20333;-57
2023/10/11 07:24:19;;;;;;;0.63;0.47;;;;;;;;;;5049198;28;20150;-57
2023/10/11 07:29:13;;;;;;;0.57;0.30;;;;;;;;;;5054623;28;20426;-57
2023/10/11 07:31:49;;;;;;;0.10;0.10;;;;;;;;;;5054532;28;20017;-57
2023/10/11 07:34:18;;;;;;;0.30;0.10;;;;;;;;;;5054211;28;20025;-57
2023/10/11 07:36:55;;;;;;;1.20;0.27;;;;;;;;;;5054045;28;20039;-57
2023/10/11 07:39:25;;;;;;;0.97;0.30;;;;;;;;;;5052213;28;20032;-57
2023/10/11 07:42:43;;;;;;;0.30;0.23;;;;;;;;;;5048675;28;20021;-57
2023/10/11 07:44:49;;;;;;;0.20;0.20;;;;;;;;;;5044473;28;20111;-57
2023/10/11 07:47:18;;;;;;;0.63;0.37;;;;;;;;;;5048678;28;20173;-57
2023/10/11 07:49:45;;;;;;;0.53;0.23;;;;;;;;;;5050294;28;20535;-57
2023/10/11 07:52:19;;;;;;;0.73;0.30;;;;;;;;;;5054002;28;20407;-57
2023/10/11 07:54:45;;;;;;;0.77;0.13;;;;;;;;;;5053815;28;20071;-57
2023/10/11 07:57:15;;;;;;;1.20;0.10;;;;;;;;;;5053853;28;20027;-58
2023/10/11 07:59:51;;;;;;;0.00;0.00;;;;;;;;;;5054014;28;20024;-57
2023/10/11 08:02:29;;;;;;;0.30;0.20;;;;;;;;;;5050720;28;20021;-57
2023/10/11 08:04:57;;;;;;;8.53;0.73;;;;;;;;;;5048315;28;20387;-57
2023/10/11 08:07:24;;;;;;;0.10;0.03;;;;;;;;;;5047867;28;20418;-58
2023/10/11 08:09:55;;;;;;;0.50;0.27;;;;;;;;;;5048308;28;20547;-57
2023/10/11 08:12:25;;;;;;;0.30;0.20;;;;;;;;;;5050706;28;20471;-58
2023/10/11 08:14:56;;;;;;;0.00;0.00;;;;;;;;;;5053378;28;20361;-58
2023/10/11 08:17:27;;;;;;;0.43;0.10;;;;;;;;;;5053471;28;20031;-57
2023/10/11 08:19:54;;;;;;;0.43;0.30;;;;;;;;;;5053322;28;20055;-57
2023/10/11 08:22:22;;;;;;;0.13;0.13;;;;;;;;;;5053459;28;20026;-57
2023/10/11 08:24:49;;;;;;;3.20;0.40;;;;;;;;;;5050189;28;20028;-58
2023/10/11 08:27:38;;;;;;;0.00;0.00;;;;;;;;;;5047968;28;20033;-57
2023/10/11 08:30:16;;;;;;;1.33;0.33;;;;;;;;;;5047392;28;20855;-57
2023/10/11 08:32:46;;;;;;;0.00;0.00;;;;;;;;;;5047839;28;20017;-58
2023/10/11 08:35:31;;;;;;;2.57;0.23;;;;;;;;;;5051079;28;20032;-58
2023/10/11 08:38:02;;;;;;;0.20;0.10;;;;;;;;;;5053011;28;20105;-57
2023/10/11 08:40:35;;;;;;;0.00;0.00;;;;;;;;;;5053126;28;20068;-57
2023/10/11 08:43:03;;;;;;;0.10;0.10;;;;;;;;;;5052862;28;20525;-57
2023/10/11 08:45:33;;;;;;;0.20;0.20;;;;;;;;;;5052986;28;20094;-57
2023/10/11 08:48:08;;;;;;;1.60;0.23;;;;;;;;;;5048303;28;20028;-57
2023/10/11 08:50:35;;;;;;;2.42;0.28;;;;;;;;;;5047409;28;20072;-57
2023/10/11 08:53:11;;;;;;;0.50;0.30;;;;;;;;;;5047056;28;20124;-57
2023/10/11 08:55:41;;;;;;;0.00;0.00;;;;;;;;;;5047580;28;20037;-57
2023/10/11 08:58:23;;;;;;;9.80;0.40;;;;;;;;;;5051802;28;20075;-57
2023/10/11 09:00:55;;;;;;;0.40;0.20;;;;;;;;;;5052199;28;20017;-57
2023/10/11 09:03:26;;;;;;;0.37;0.20;;;;;;;;;;5052671;28;20051;-57
2023/10/11 09:05:59;;;;;;;1.03;0.47;;;;;;;;;;5052616;28;20082;-57
2023/10/11 09:08:35;;;;;;;0.13;0.03;;;;;;;;;;5052372;28;20017;-57
2023/10/11 09:11:28;;;;;;;0.20;0.20;;;;;;;;;;5046847;28;20029;-57
2023/10/11 09:14:13;;;;;;;0.57;0.20;;;;;;;;;;5046950;28;20026;-57
2023/10/11 09:16:40;;;;;;;3.00;0.47;;;;;;;;;;5046936;28;20051;-57
2023/10/11 09:19:10;;;;;;;0.23;0.20;;;;;;;;;;5048247;28;20423;-57
2023/10/11 09:21:37;;;;;;;1.03;0.13;;;;;;;;;;5052209;28;20105;-57
2023/10/11 09:24:23;;;;;;;2.23;0.60;;;;;;;;;;5052247;28;20754;-57
2023/10/11 09:26:49;;;;;;;;;;;;;;;;;;5052810;28;20484;-57
2023/10/11 09:29:24;;;;;;;0.50;0.37;;;;;;;;;;5052321;28;19911;-57
2023/10/11 09:31:58;;;;;;;0.10;0.10;;;;;;;;;;5066871;28;20119;-57
2023/10/11 09:34:29;;;;;;;0.10;0.10;;;;;;;;;;5066575;28;20036;-57
2023/10/11 09:37:00;;;;;;;1.40;0.30;;;;;;;;;;5065879;28;20052;-57
2023/10/11 09:39:29;;;;;;;0.17;0.10;;;;;;;;;;5066489;28;20038;-57
2023/10/11 09:42:02;;;;;;;3.63;0.83;;;;;;;;;;5069133;28;20094;-57
2023/10/11 09:44:37;;;;;;;0.57;0.20;;;;;;;;;;5071777;28;20024;-57
2023/10/11 09:47:05;;;;;;;0.90;0.25;;;;;;;;;;5071968;28;20387;-57
2023/10/11 09:49:41;;;;;;;1.97;0.33;;;;;;;;;;5072007;28;20070;-57
2023/10/11 09:52:09;;;;;;;0.17;0.17;;;;;;;;;;5071765;28;20017;-57
2023/10/11 09:54:37;;;;;;;0.10;0.00;;;;;;;;;;5068750;28;20037;-57
2023/10/11 09:57:16;;;;;;;0.30;0.20;;;;;;;;;;5066055;28;20033;-57
2023/10/11 10:00:23;;;;;;;0.17;0.03;;;;;;;;;;5066696;28;20020;-59
2023/10/11 10:02:54;;;;;;;0.10;0.10;;;;;;;;;;5023663;28;20029;-57
2023/10/11 10:05:30;;;;;;;0.13;0.10;;;;;;;;;;5028990;28;20100;-57
2023/10/11 10:08:13;;;;;;;1.30;0.10;;;;;;;;;;5054042;28;20037;-57
2023/10/11 10:10:53;;;;;;;0.50;0.40;;;;;;;;;;5071611;28;20120;-57
2023/10/11 10:13:24;;;;;;;0.10;0.10;;;;;;;;;;5071803;28;20096;-57
2023/10/11 10:15:57;;;;;;;0.37;0.20;;;;;;;;;;5070883;28;20553;-58
2023/10/11 10:18:25;;;;;;;1.50;0.40;;;;;;;;;;5066236;28;20025;-57
2023/10/11 10:21:02;;;;;;;1.60;0.30;;;;;;;;;;5066208;28;20498;-57
2023/10/11 10:23:29;;;;;;;1.30;0.40;;;;;;;;;;5066126;28;20668;-57
2023/10/11 10:26:05;;;;;;;1.43;0.27;;;;;;;;;;5066581;28;20021;-57
2023/10/11 10:28:32;;;;;;;0.40;0.10;;;;;;;;;;5071820;28;20020;-57
2023/10/11 10:31:18;;;;;;;1.17;0.13;;;;;;;;;;5071382;28;20074;-57
2023/10/11 10:33:50;;;;;;;3.30;0.30;;;;;;;;;;5071144;28;20471;-57
2023/10/11 10:36:28;;;;;;;0.00;0.00;;;;;;;;;;5071447;28;20056;-57
2023/10/11 10:39:01;;;;;;;0.00;0.00;;;;;;;;;;5069305;28;20201;-57
2023/10/11 10:41:31;;;;;;;0.10;0.10;;;;;;;;;;5065334;28;20025;-57
2023/10/11 10:44:10;;;;;;;0.00;0.00;;;;;;;;;;5064926;28;20031;-57
2023/10/11 10:46:37;;;;;;;0.13;0.10;;;;;;;;;;5064851;28;20557;-57
2023/10/11 10:49:04;;;;;;;0.00;0.00;;;;;;;;;;5070208;28;20036;-57
2023/10/11 10:51:37;;;;;;;0.47;0.20;;;;;;;;;;5074517;28;20031;-57
2023/10/11 10:54:12;;;;;;;0.10;0.10;;;;;;;;;;5074741;28;20028;-58
2023/10/11 10:56:42;;;;;;;1.00;0.30;;;;;;;;;;5074716;28;20048;-58
2023/10/11 10:59:20;;;;;;;1.57;0.37;;;;;;;;;;5074970;28;20091;-57
2023/10/11 11:01:48;;;;;;;0.97;0.20;;;;;;;;;;5071789;28;20028;-57
2023/10/11 11:04:16;;;;;;;0.33;0.20;;;;;;;;;;5069394;28;20043;-57
2023/10/11 11:06:46;;;;;;;0.03;0.03;;;;;;;;;;5069746;28;20051;-58
2023/10/11 11:09:14;;;;;;;0.00;0.00;;;;;;;;;;5069349;28;20386;-59
2023/10/11 11:11:44;;;;;;;0.00;0.00;;;;;;;;;;5072065;28;20044;-59
2023/10/11 11:14:19;;;;;;;0.00;0.00;;;;;;;;;;5073321;28;20083;-59
2023/10/11 11:16:54;;;;;;;0.00;0.00;;;;;;;;;;5074659;28;20028;-59
2023/10/11 11:19:34;;;;;;;0.10;0.03;;;;;;;;;;5074602;28;20032;-59
2023/10/11 11:22:11;;;;;;;4.80;0.30;;;;;;;;;;5074417;28;20093;-58
2023/10/11 11:24:41;;;;;;;1.27;0.30;;;;;;;;;;5070345;28;20375;-58
2023/10/11 11:27:32;;;;;;;0.00;0.00;;;;;;;;;;5068826;28;20033;-57
2023/10/11 11:30:04;;;;;;;0.17;0.10;;;;;;;;;;5069167;28;20103;-57
2023/10/11 11:32:38;;;;;;;0.33;0.20;;;;;;;;;;5069151;28;20033;-57
2023/10/11 11:38:07;;;;;;;1.03;0.30;;;;;;;;;;5073890;28;20089;-58
2023/10/11 11:40:36;;;;;;;0.07;0.07;;;;;;;;;;5074501;28;20028;-57
2023/10/11 11:43:08;;;;;;;0.23;0.20;;;;;;;;;;5074271;28;20096;-57
2023/10/11 11:45:35;;;;;;;0.17;0.17;;;;;;;;;;5073093;28;20577;-57
2023/10/11 11:48:05;;;;;;;0.10;0.10;;;;;;;;;;5068451;28;20360;-57
2023/10/11 11:50:37;;;;;;;0.30;0.20;;;;;;;;;;5068292;28;20028;-57
2023/10/11 11:53:04;;;;;;;0.20;0.20;;;;;;;;;;5068600;28;20648;-57
2023/10/11 11:55:35;;;;;;;4.83;0.20;;;;;;;;;;5069031;28;20039;-57
2023/10/11 11:58:10;;;;;;;1.70;0.20;;;;;;;;;;5074047;28;20052;-57
2023/10/11 12:00:39;;;;;;;0.47;0.30;;;;;;;;;;5072970;28;20379;-57
2023/10/11 12:03:08;;;;;;;0.20;0.17;;;;;;;;;;5073798;28;20036;-57
2023/10/11 12:05:42;;;;;;;1.27;0.50;;;;;;;;;;5073578;28;20017;-57
2023/10/11 12:08:18;;;;;;;0.20;0.20;;;;;;;;;;5072295;28;20491;-57
2023/10/11 12:10:47;;;;;;;0.20;0.20;;;;;;;;;;5068267;28;20476;-57
2023/10/11 12:13:23;;;;;;;0.20;0.20;;;;;;;;;;5068485;28;20025;-57
2023/10/11 12:15:56;;;;;;;10.93;0.50;;;;;;;;;;5068095;28;20024;-57
2023/10/11 12:18:24;;;;;;;1.47;0.30;;;;;;;;;;5069629;28;20024;-57
2023/10/11 12:20:50;;;;;;;0.23;0.20;;;;;;;;;;5073172;28;20025;-57
2023/10/11 12:23:18;;;;;;;1.03;0.20;;;;;;;;;;5073499;28;20020;-57
2023/10/11 12:25:47;;;;;;;1.27;0.40;;;;;;;;;;5073232;28;20032;-57
2023/10/11 12:28:14;;;;;;;3.20;0.40;;;;;;;;;;5073072;28;20107;-57
2023/10/11 12:30:44;;;;;;;1.57;0.77;;;;;;;;;;5071171;28;20032;-57
2023/10/11 12:33:11;;;;;;;2.23;0.70;;;;;;;;;;5067989;28;20857;-57
2023/10/11 12:35:41;;;;;;;3.13;0.47;;;;;;;;;;5067492;28;20078;-57
2023/10/11 12:38:12;;;;;;;2.13;0.93;;;;;;;;;;5067800;28;20024;-57
2023/10/11 12:40:41;;;;;;;2.23;1.23;;;;;;;;;;5069114;28;20032;-57
2023/10/11 12:43:08;;;;;;;0.30;0.30;;;;;;;;;;5072584;28;20112;-57
2023/10/11 12:45:35;;;;;;;4.33;0.80;;;;;;;;;;5072732;28;20028;-57
2023/10/11 12:48:06;;;;;;;2.93;0.60;;;;;;;;;;5072959;28;20032;-57
2023/10/11 12:50:39;;;;;;;9.83;0.63;;;;;;;;;;5072711;28;20090;-57
2023/10/11 12:53:10;;;;;;;0.40;0.30;;;;;;;;;;5070928;28;20396;-57
2023/10/11 12:55:41;;;;;;;0.60;0.50;;;;;;;;;;5067349;28;20043;-57
2023/10/11 12:58:13;;;;;;;0.60;0.30;;;;;;;;;;5067045;28;20036;-57
2023/10/11 13:00:58;;;;;;;1.13;0.37;;;;;;;;;;5067459;28;20028;-57
2023/10/11 13:05:52;;;;;;;0.20;0.20;;;;;;;;;;5072580;28;20074;-57
2023/10/11 13:08:28;;;;;;;2.93;1.90;;;;;;;;;;5072188;28;20024;-57
2023/10/11 13:10:55;;;;;;;5.27;2.90;;;;;;;;;;5071899;28;20060;-58
2023/10/11 13:13:22;;;;;;;3.97;0.87;;;;;;;;;;5071840;28;20025;-57
2023/10/11 13:15:59;;;;;;;0.57;0.30;;;;;;;;;;5069763;28;20104;-57
2023/10/11 13:18:33;;;;;;;1.13;0.27;;;;;;;;;;5066811;28;20094;-57
2023/10/11 13:21:00;;;;;;;0.10;0.00;;;;;;;;;;5066509;28;20028;-57
2023/10/11 13:23:30;;;;;;;0.10;0.10;;;;;;;;;;5067131;28;20032;-58
2023/10/11 13:26:00;;;;;;;2.30;1.37;;;;;;;;;;5069327;28;20107;-57
2023/10/11 13:28:28;;;;;;;2.33;1.03;;;;;;;;;;5072282;28;20021;-59
2023/10/11 13:30:55;;;;;;;2.63;0.90;;;;;;;;;;5072143;28;20031;-58
2023/10/11 13:33:22;;;;;;;1.63;0.80;;;;;;;;;;5072070;28;20024;-57
2023/10/11 13:35:50;;;;;;;2.23;1.37;;;;;;;;;;5071258;28;20505;-58
2023/10/11 13:38:20;;;;;;;1.60;0.97;;;;;;;;;;5069297;28;20029;-57
2023/10/11 13:40:50;;;;;;;2.10;1.00;;;;;;;;;;5066092;28;20081;-57
2023/10/11 13:43:19;;;;;;;0.97;0.60;;;;;;;;;;5066305;28;20102;-57
2023/10/11 13:45:56;;;;;;;1.13;0.37;;;;;;;;;;5066816;28;20033;-57
2023/10/11 13:49:17;;;;;;;1.10;0.40;;;;;;;;;;5068670;28;20044;-57
2023/10/11 13:51:19;;;;;;;12.33;0.57;;;;;;;;;;5070347;28;20468;-57
2023/10/11 13:53:46;;;;;;;1.43;0.23;;;;;;;;;;5071998;28;20429;-57
2023/10/11 13:56:21;;;;;;;0.20;0.10;;;;;;;;;;5071588;28;20387;-57
2023/10/11 13:58:48;;;;;;;1.38;0.73;;;;;;;;;;5072051;28;20032;-57
2023/10/11 14:04:13;;;;;;;1.08;0.63;;;;;;;;;;5066576;28;20526;-57
2023/10/11 14:06:46;;;;;;;5.50;1.20;;;;;;;;;;5066108;28;20387;-57
2023/10/11 14:09:16;;;;;;;1.67;1.07;;;;;;;;;;5066334;28;20473;-58
2023/10/11 14:11:46;;;;;;;1.60;0.83;;;;;;;;;;5069762;28;20020;-57
2023/10/11 14:14:14;;;;;;;1.40;1.00;;;;;;;;;;5071779;28;20021;-57
2023/10/11 14:16:41;;;;;;;8.20;0.87;;;;;;;;;;5071653;28;20106;-57
2023/10/11 14:19:13;;;;;;;2.07;1.37;;;;;;;;;;5071747;28;20055;-57
2023/10/11 14:21:40;;;;;;;0.40;0.37;;;;;;;;;;5071499;28;20123;-57
2023/10/11 14:24:07;;;;;;;1.17;0.70;;;;;;;;;;5068694;28;20052;-58
2023/10/11 14:26:34;;;;;;;1.07;0.80;;;;;;;;;;5070154;28;20028;-57
2023/10/11 14:29:06;;;;;;;0.60;0.50;;;;;;;;;;5070407;28;20032;-58
2023/10/11 14:31:33;;;;;;;0.47;0.43;;;;;;;;;;5070298;28;20038;-57
2023/10/11 14:34:01;;;;;;;1.23;0.73;;;;;;;;;;5074058;28;20048;-58
2023/10/11 14:36:28;;;;;;;0.90;0.60;;;;;;;;;;5075037;28;20035;-57
2023/10/11 14:38:55;;;;;;;2.93;1.00;;;;;;;;;;5075380;28;20023;-57
2023/10/11 14:41:24;;;;;;;1.37;0.87;;;;;;;;;;5075317;28;20107;-58
2023/10/11 14:43:51;;;;;;;1.50;0.77;;;;;;;;;;5074896;28;20039;-57
2023/10/11 14:46:19;;;;;;;2.73;1.20;;;;;;;;;;5070025;28;20032;-57
2023/10/11 14:48:49;;;;;;;1.23;0.70;;;;;;;;;;5069984;28;20073;-57
2023/10/11 14:51:20;;;;;;;1.00;0.80;;;;;;;;;;5069609;28;20025;-57
2023/10/11 14:53:50;;;;;;;1.30;0.70;;;;;;;;;;5069330;28;20084;-57
2023/10/11 14:56:17;;;;;;;1.37;0.93;;;;;;;;;;5073563;28;20025;-57
2023/10/11 14:58:44;;;;;;;1.50;0.77;;;;;;;;;;5075127;28;20424;-57
2023/10/11 15:01:14;;;;;;;5.57;1.23;;;;;;;;;;5074804;28;20033;-58
2023/10/11 15:03:41;;;;;;;0.90;0.47;;;;;;;;;;5075141;28;20025;-57
2023/10/11 15:06:09;;;;;;;0.53;0.30;;;;;;;;;;5074536;28;20032;-57
2023/10/11 15:08:37;;;;;;;1.17;0.40;;;;;;;;;;5070174;28;20024;-57
2023/10/11 15:11:04;;;;;;;0.37;0.17;;;;;;;;;;5069262;28;20029;-58
2023/10/11 15:13:33;;;;;;;0.20;0.20;;;;;;;;;;5069535;28;20023;-57
2023/10/11 15:16:00;;;;;;;0.00;0.00;;;;;;;;;;5068304;28;20182;-57
2023/10/11 15:18:27;;;;;;;0.23;0.13;;;;;;;;;;5071107;28;20360;-57
2023/10/11 15:20:54;;;;;;;0.63;0.27;;;;;;;;;;5074086;28;20021;-57
2023/10/11 15:23:21;;;;;;;9.47;0.40;;;;;;;;;;5074064;28;20027;-58
2023/10/11 15:25:47;;;;;;;0.00;0.00;;;;;;;;;;5074680;28;20052;-58
2023/10/11 15:28:14;;;;;;;0.10;0.10;;;;;;;;;;5074542;28;20097;-57
2023/10/11 15:30:41;;;;;;;0.97;0.40;;;;;;;;;;5070439;28;20055;-58
2023/10/11 15:33:08;;;;;;;0.00;0.00;;;;;;;;;;5069310;28;20020;-57
2023/10/11 15:35:35;;;;;;;0.00;0.00;;;;;;;;;;5067180;28;20064;-58
2023/10/11 15:38:05;;;;;;;0.00;0.00;;;;;;;;;;5068497;28;20029;-57
2023/10/11 15:40:32;;;;;;;0.03;0.03;;;;;;;;;;5071439;28;20036;-58
2023/10/11 15:42:59;;;;;;;0.00;0.00;;;;;;;;;;5073988;28;20055;-60
2023/10/11 15:45:25;;;;;;;0.00;0.00;;;;;;;;;;5074184;28;20017;-59
2023/10/11 15:47:52;;;;;;;0.10;0.10;;;;;;;;;;5074024;28;20044;-59
2023/10/11 15:50:20;;;;;;;0.00;0.00;;;;;;;;;;5073761;28;20039;-59
2023/10/11 15:52:49;;;;;;;0.10;0.10;;;;;;;;;;5070790;28;20031;-60
2023/10/11 15:55:16;;;;;;;1.00;0.47;;;;;;;;;;5068354;28;20044;-60
2023/10/11 15:57:42;;;;;;;0.50;0.13;;;;;;;;;;5067926;28;20033;-60
2023/10/11 16:00:13;;;;;;;0.00;0.00;;;;;;;;;;5068106;28;20071;-60
2023/10/11 16:02:42;;;;;;;0.10;0.10;;;;;;;;;;5070896;28;20043;-59
2023/10/11 16:05:15;;;;;;;0.30;0.10;;;;;;;;;;5073369;28;20510;-60
2023/10/11 16:07:43;;;;;;;0.03;0.03;;;;;;;;;;5073635;28;20540;-60
2023/10/11 16:10:09;;;;;;;0.00;0.00;;;;;;;;;;5072723;28;20433;-60
2023/10/11 16:12:41;;;;;;;0.50;0.30;;;;;;;;;;5073235;28;20100;-59
2023/10/11 16:15:11;;;;;;;0.60;0.30;;;;;;;;;;5070327;28;20045;-58
2023/10/11 16:17:39;;;;;;;0.17;0.10;;;;;;;;;;5068161;28;20379;-58
2023/10/11 16:20:06;;;;;;;0.53;0.20;;;;;;;;;;5067782;28;20016;-58
2023/10/11 16:22:37;;;;;;;0.47;0.20;;;;;;;;;;5067998;28;20498;-58